Time;durP1;ratioP1;P1;durP2;ratioP2;P2;SDS_P1;SDS_P2;PMS_P1;PMS_P2;Temp;Humidity;BMP_temperature;BMP_pressure;BME280_temperature;BME280_humidity;BME280_pressure;Samples;Min_cycle;Max_cycle;Signal;HPM_P1;HPM_P2
2021/12/30 00:00:38;;;;;;;4.03;1.83;;;11.60;99.90;;;;;;4993289;28;20179;-74
2021/12/30 00:03:05;;;;;;;2.33;1.47;;;11.70;99.90;;;;;;4993947;28;20223;-73
2021/12/30 00:05:33;;;;;;;2.50;1.30;;;11.70;99.90;;;;;;4994288;28;20176;-74
2021/12/30 00:07:58;;;;;;;1.00;0.90;;;11.70;99.90;;;;;;4993879;28;20177;-74
2021/12/30 00:10:24;;;;;;;0.83;0.80;;;11.70;99.90;;;;;;5006985;28;20183;-74
2021/12/30 00:12:51;;;;;;;0.67;0.67;;;11.70;99.90;;;;;;4994216;28;20236;-73
2021/12/30 00:15:17;;;;;;;1.00;0.70;;;11.70;99.90;;;;;;4994134;28;20637;-73
2021/12/30 00:17:43;;;;;;;0.60;0.60;;;11.70;99.90;;;;;;4994082;28;20251;-73
2021/12/30 00:20:09;;;;;;;0.87;0.60;;;11.80;99.90;;;;;;4994040;28;20579;-73
2021/12/30 00:22:37;;;;;;;0.80;0.80;;;11.80;99.90;;;;;;4994039;28;20243;-72
2021/12/30 00:25:04;;;;;;;0.50;0.50;;;11.80;99.90;;;;;;4992809;28;20180;-73
2021/12/30 00:27:29;;;;;;;0.80;0.67;;;11.80;99.90;;;;;;4994164;28;20195;-73
2021/12/30 00:29:55;;;;;;;0.83;0.60;;;11.80;99.90;;;;;;4993744;28;20577;-75
2021/12/30 00:32:21;;;;;;;0.67;0.50;;;11.90;99.90;;;;;;4994000;28;20512;-74
2021/12/30 00:34:46;;;;;;;0.80;0.60;;;11.80;99.90;;;;;;4993709;28;20667;-74
2021/12/30 00:37:12;;;;;;;0.40;0.40;;;11.80;99.90;;;;;;4992555;28;20221;-73
2021/12/30 00:39:38;;;;;;;0.70;0.50;;;11.80;99.90;;;;;;4994144;28;20571;-73
2021/12/30 00:42:03;;;;;;;0.40;0.40;;;11.80;99.90;;;;;;4993888;28;20170;-73
2021/12/30 00:44:29;;;;;;;0.67;0.40;;;11.90;99.90;;;;;;4993122;28;20267;-74
2021/12/30 00:46:58;;;;;;;0.40;0.40;;;11.90;99.90;;;;;;4993670;28;20195;-73
2021/12/30 00:49:24;;;;;;;0.40;0.40;;;11.90;99.90;;;;;;4993592;28;20659;-73
2021/12/30 00:51:49;;;;;;;0.97;0.50;;;11.90;99.90;;;;;;4994024;28;20182;-73
2021/12/30 00:54:15;;;;;;;0.40;0.40;;;11.90;99.90;;;;;;4993737;28;20243;-73
2021/12/30 00:56:41;;;;;;;1.90;0.50;;;11.90;99.90;;;;;;4992399;28;20854;-74
2021/12/30 00:59:07;;;;;;;0.87;0.40;;;11.90;99.90;;;;;;4994045;28;20277;-73
2021/12/30 01:01:33;;;;;;;0.40;0.30;;;11.90;99.90;;;;;;4992414;28;20184;-73
2021/12/30 01:03:59;;;;;;;0.57;0.43;;;12.00;99.90;;;;;;4993473;28;20223;-74
2021/12/30 01:06:24;;;;;;;0.40;0.30;;;12.10;99.90;;;;;;4998032;28;20246;-73
2021/12/30 01:08:50;;;;;;;0.20;0.20;;;12.00;99.90;;;;;;4997739;28;20214;-73
2021/12/30 01:11:18;;;;;;;0.17;0.17;;;12.10;99.90;;;;;;4998094;28;20202;-75
2021/12/30 01:13:45;;;;;;;0.10;0.10;;;12.10;99.90;;;;;;4997070;28;20207;-75
2021/12/30 01:16:19;;;;;;;0.97;0.20;;;12.10;99.90;;;;;;5003304;28;20193;-74
2021/12/30 01:21:33;;;;;;;0.60;0.40;;;12.10;99.90;;;;;;4997990;28;20195;-73
2021/12/30 01:24:01;;;;;;;0.20;0.10;;;12.10;99.90;;;;;;4997277;28;20178;-74
2021/12/30 01:26:27;;;;;;;0.43;0.20;;;12.10;99.90;;;;;;4996000;28;20199;-74
2021/12/30 01:28:53;;;;;;;1.73;0.20;;;12.10;99.90;;;;;;4997494;28;20185;-73
2021/12/30 01:31:19;;;;;;;0.20;0.20;;;12.10;99.90;;;;;;4997101;28;20186;-74
2021/12/30 01:33:47;;;;;;;0.40;0.10;;;12.20;99.90;;;;;;4995894;28;20271;-73
2021/12/30 01:36:14;;;;;;;0.47;0.30;;;12.10;99.90;;;;;;4996379;28;20233;-73
2021/12/30 01:38:40;;;;;;;0.20;0.20;;;12.10;99.90;;;;;;4997230;28;20636;-73
2021/12/30 01:41:08;;;;;;;0.50;0.50;;;12.10;99.90;;;;;;4995841;28;20183;-74
2021/12/30 01:43:36;;;;;;;0.50;0.20;;;12.10;99.90;;;;;;4996972;28;20577;-73
2021/12/30 01:46:03;;;;;;;0.40;0.40;;;12.10;99.90;;;;;;4995643;28;20287;-73
2021/12/30 01:48:29;;;;;;;0.20;0.20;;;12.10;99.90;;;;;;4995537;28;20197;-74
2021/12/30 01:50:54;;;;;;;0.77;0.30;;;12.10;99.90;;;;;;4996910;28;20182;-73
2021/12/30 01:53:20;;;;;;;0.30;0.30;;;12.20;99.90;;;;;;4996815;28;20194;-74
2021/12/30 01:55:46;;;;;;;0.43;0.20;;;12.10;99.90;;;;;;4996539;28;20213;-74
2021/12/30 01:58:13;;;;;;;0.37;0.20;;;12.10;99.90;;;;;;4996778;28;20180;-73
2021/12/30 02:00:41;;;;;;;0.37;0.23;;;12.10;99.90;;;;;;4995378;28;20186;-73
2021/12/30 02:03:09;;;;;;;0.53;0.20;;;12.10;99.90;;;;;;4995380;28;20266;-74
2021/12/30 02:05:36;;;;;;;0.20;0.20;;;12.10;99.90;;;;;;4996415;28;20174;-73
2021/12/30 02:08:03;;;;;;;0.33;0.10;;;12.00;99.90;;;;;;4996616;28;20176;-73
2021/12/30 02:10:29;;;;;;;0.30;0.23;;;12.00;99.90;;;;;;4996509;28;20225;-73
2021/12/30 02:12:54;;;;;;;0.33;0.10;;;12.10;99.90;;;;;;4995219;28;20180;-73
2021/12/30 02:15:20;;;;;;;0.20;0.20;;;12.20;99.90;;;;;;4995873;28;20179;-73
2021/12/30 02:17:51;;;;;;;0.83;0.20;;;12.20;99.90;;;;;;4994537;28;20508;-73
2021/12/30 02:20:55;;;;;;;0.40;0.20;;;12.20;99.90;;;;;;5001563;28;20660;-73
2021/12/30 02:23:29;;;;;;;0.40;0.20;;;12.20;99.90;;;;;;5018453;23;20228;-77
2021/12/30 02:26:04;;;;;;;0.47;0.20;;;12.20;99.90;;;;;;5013239;28;20168;-78
2021/12/30 02:28:33;;;;;;;1.37;0.30;;;12.20;99.90;;;;;;4989958;28;20167;-77
2021/12/30 02:31:01;;;;;;;0.50;0.20;;;12.20;99.90;;;;;;5008599;28;20177;-78
2021/12/30 02:33:27;;;;;;;0.50;0.20;;;12.20;99.90;;;;;;5017037;28;20236;-77
2021/12/30 02:35:54;;;;;;;0.53;0.20;;;12.20;99.90;;;;;;5017021;28;20216;-78
2021/12/30 02:38:20;;;;;;;0.80;0.30;;;12.20;99.90;;;;;;4999820;28;20191;-77
2021/12/30 02:40:58;;;;;;;0.40;0.30;;;12.20;99.90;;;;;;5017159;28;20295;-77
2021/12/30 02:43:29;;;;;;;1.30;0.50;;;12.20;99.90;;;;;;4998990;28;20183;-77
2021/12/30 02:45:56;;;;;;;1.23;0.20;;;12.20;99.90;;;;;;5016401;28;20634;-77
2021/12/30 02:48:25;;;;;;;0.37;0.20;;;12.20;99.90;;;;;;5016506;28;20183;-78
2021/12/30 02:50:53;;;;;;;0.30;0.30;;;12.20;99.90;;;;;;5017046;28;20649;-77
2021/12/30 02:53:20;;;;;;;0.70;0.27;;;12.20;99.90;;;;;;5016820;28;20197;-77
2021/12/30 02:55:46;;;;;;;1.17;0.30;;;12.20;99.90;;;;;;5007759;28;20548;-77
2021/12/30 02:58:13;;;;;;;0.20;0.20;;;12.10;99.90;;;;;;5016781;28;20180;-77
2021/12/30 03:00:40;;;;;;;0.20;0.20;;;12.10;99.90;;;;;;5017016;28;20161;-77
2021/12/30 03:03:06;;;;;;;0.60;0.17;;;12.10;99.90;;;;;;5017167;28;20197;-77
2021/12/30 03:05:33;;;;;;;0.50;0.30;;;12.20;99.90;;;;;;5017100;28;20173;-77
2021/12/30 03:07:58;;;;;;;0.10;0.10;;;12.20;99.90;;;;;;5000023;28;20169;-77
2021/12/30 03:10:27;;;;;;;0.10;0.10;;;12.20;99.90;;;;;;5017759;28;20189;-78
2021/12/30 03:12:57;;;;;;;0.27;0.13;;;12.20;99.90;;;;;;4997909;28;20257;-79
2021/12/30 03:15:26;;;;;;;0.20;0.10;;;12.20;99.90;;;;;;4990193;28;20202;-79
2021/12/30 03:17:52;;;;;;;0.83;0.20;;;12.20;99.90;;;;;;5015072;28;20562;-78
2021/12/30 03:20:17;;;;;;;0.23;0.10;;;12.20;99.90;;;;;;5015010;28;20168;-78
2021/12/30 03:22:44;;;;;;;0.80;0.40;;;12.20;99.90;;;;;;5015529;28;20249;-77
2021/12/30 03:25:13;;;;;;;0.43;0.30;;;12.20;99.90;;;;;;5016951;28;20165;-77
2021/12/30 03:27:40;;;;;;;1.13;0.30;;;12.20;99.90;;;;;;5016684;28;20172;-77
2021/12/30 03:30:10;;;;;;;0.20;0.20;;;12.20;99.90;;;;;;5012463;28;20194;-77
2021/12/30 03:32:36;;;;;;;0.20;0.20;;;12.20;99.90;;;;;;5013299;28;20167;-77
2021/12/30 03:35:02;;;;;;;0.67;0.40;;;12.20;99.90;;;;;;5017080;28;20184;-77
2021/12/30 03:37:28;;;;;;;0.80;0.47;;;12.10;99.90;;;;;;5015354;28;20304;-79
2021/12/30 03:39:54;;;;;;;0.90;0.50;;;12.20;99.90;;;;;;4985312;28;20265;-78
2021/12/30 03:42:19;;;;;;;1.80;0.50;;;12.10;99.90;;;;;;5000082;28;20183;-79
2021/12/30 03:44:45;;;;;;;1.60;0.63;;;12.20;99.90;;;;;;4979227;28;20186;-80
2021/12/30 03:47:15;;;;;;;0.50;0.50;;;12.20;99.90;;;;;;4998693;28;20178;-77
2021/12/30 03:49:44;;;;;;;1.40;0.73;;;12.20;99.90;;;;;;4999279;28;20628;-78
2021/12/30 03:52:19;;;;;;;0.70;0.57;;;12.20;99.90;;;;;;4994559;28;20666;-79
2021/12/30 03:54:45;;;;;;;1.50;0.33;;;12.10;99.90;;;;;;4969268;28;20657;-79
2021/12/30 03:57:11;;;;;;;1.03;0.40;;;12.10;99.90;;;;;;4964359;28;20197;-78
2021/12/30 03:59:37;;;;;;;1.43;0.70;;;12.20;99.90;;;;;;4960470;28;20175;-77
2021/12/30 04:02:03;;;;;;;0.60;0.53;;;12.10;99.90;;;;;;4976999;28;20257;-77
2021/12/30 04:04:29;;;;;;;1.43;0.80;;;12.10;99.90;;;;;;4957465;28;20195;-79
2021/12/30 04:06:55;;;;;;;0.63;0.47;;;12.20;99.90;;;;;;4964697;28;20184;-79
2021/12/30 04:09:21;;;;;;;0.43;0.30;;;12.10;99.90;;;;;;4972336;28;20174;-79
2021/12/30 04:11:46;;;;;;;1.43;0.30;;;12.20;99.90;;;;;;4980291;28;20232;-78
2021/12/30 04:14:12;;;;;;;0.20;0.20;;;12.10;99.90;;;;;;4989029;28;20245;-77
2021/12/30 04:16:38;;;;;;;0.50;0.20;;;12.10;99.90;;;;;;4998821;28;20200;-77
2021/12/30 04:19:04;;;;;;;0.37;0.30;;;12.20;99.90;;;;;;4999458;28;20174;-77
2021/12/30 04:21:30;;;;;;;0.73;0.20;;;12.20;99.90;;;;;;4997598;28;20166;-77
2021/12/30 04:23:56;;;;;;;0.27;0.27;;;12.10;99.90;;;;;;5011430;28;20224;-78
2021/12/30 04:26:22;;;;;;;2.23;0.20;;;12.10;99.90;;;;;;4999031;28;20177;-77
2021/12/30 04:28:48;;;;;;;0.10;0.10;;;12.10;99.90;;;;;;5017416;28;20171;-77
2021/12/30 04:31:14;;;;;;;0.33;0.27;;;12.20;99.90;;;;;;5008708;28;20194;-77
2021/12/30 04:33:40;;;;;;;0.10;0.10;;;12.20;99.90;;;;;;5016725;28;20193;-77
2021/12/30 04:36:07;;;;;;;0.20;0.20;;;12.10;99.90;;;;;;5016749;28;20649;-79
2021/12/30 04:38:34;;;;;;;0.73;0.20;;;12.10;99.90;;;;;;5016794;28;20265;-77
2021/12/30 04:41:01;;;;;;;0.67;0.13;;;12.20;99.90;;;;;;5016790;28;20167;-78
2021/12/30 04:43:27;;;;;;;2.03;0.20;;;12.20;99.90;;;;;;5017673;28;20658;-77
2021/12/30 04:45:53;;;;;;;0.20;0.20;;;12.20;99.90;;;;;;4999561;28;20190;-77
2021/12/30 04:48:19;;;;;;;1.33;0.20;;;12.10;99.90;;;;;;4999505;28;20261;-78
2021/12/30 04:50:45;;;;;;;0.30;0.30;;;12.20;99.90;;;;;;4999022;28;20177;-76
2021/12/30 04:53:15;;;;;;;0.30;0.30;;;12.20;99.90;;;;;;5016554;28;20197;-76
2021/12/30 04:55:42;;;;;;;0.30;0.30;;;12.20;99.90;;;;;;5006696;28;20548;-76
2021/12/30 04:58:07;;;;;;;0.60;0.40;;;12.20;99.90;;;;;;5016635;28;20172;-76
2021/12/30 05:00:34;;;;;;;1.10;0.50;;;12.20;99.90;;;;;;4992397;28;20177;-77
2021/12/30 05:05:29;;;;;;;0.40;0.40;;;12.10;99.90;;;;;;5013438;28;20633;-77
2021/12/30 05:07:55;;;;;;;0.97;0.40;;;12.20;99.90;;;;;;5003850;28;20160;-78
2021/12/30 05:10:20;;;;;;;0.30;0.30;;;12.10;99.90;;;;;;4996983;28;20226;-77
2021/12/30 05:12:46;;;;;;;1.03;0.30;;;12.10;99.90;;;;;;4998003;28;20174;-76
2021/12/30 05:15:12;;;;;;;0.40;0.30;;;12.20;99.90;;;;;;5015083;28;20200;-78
2021/12/30 05:17:39;;;;;;;0.77;0.30;;;12.20;99.90;;;;;;5014941;28;20670;-76
2021/12/30 05:20:06;;;;;;;1.57;0.40;;;12.20;99.90;;;;;;5005689;28;20650;-78
2021/12/30 05:22:31;;;;;;;0.60;0.33;;;12.20;99.90;;;;;;4963165;28;20187;-77
2021/12/30 05:24:57;;;;;;;1.20;0.40;;;12.10;99.90;;;;;;4980127;28;20197;-77
2021/12/30 05:27:22;;;;;;;0.53;0.40;;;12.10;99.90;;;;;;4994133;28;20172;-76
2021/12/30 05:29:48;;;;;;;0.50;0.30;;;12.10;99.90;;;;;;4995963;28;20167;-76
2021/12/30 05:32:14;;;;;;;0.47;0.33;;;12.10;99.90;;;;;;4984953;28;20407;-79
2021/12/30 05:34:39;;;;;;;0.50;0.37;;;12.20;99.90;;;;;;4987322;28;20708;-77
2021/12/30 05:37:05;;;;;;;0.47;0.30;;;12.10;99.90;;;;;;4983724;28;20230;-78
2021/12/30 05:39:31;;;;;;;1.70;0.40;;;12.10;99.90;;;;;;4975087;28;20224;-78
2021/12/30 05:41:57;;;;;;;1.57;0.30;;;12.10;99.90;;;;;;4981097;28;20246;-78
2021/12/30 05:44:23;;;;;;;0.43;0.43;;;12.10;99.90;;;;;;4974925;28;20200;-77
2021/12/30 05:46:48;;;;;;;0.33;0.33;;;12.10;99.90;;;;;;4993750;28;20171;-77
2021/12/30 05:49:14;;;;;;;0.73;0.40;;;12.10;99.90;;;;;;4989346;28;20210;-77
2021/12/30 05:51:41;;;;;;;0.33;0.30;;;12.00;99.90;;;;;;4985166;28;20265;-78
2021/12/30 05:54:07;;;;;;;0.30;0.20;;;12.00;99.90;;;;;;4985873;28;20196;-79
2021/12/30 05:56:33;;;;;;;0.40;0.23;;;12.00;99.90;;;;;;4988351;28;20577;-77
2021/12/30 05:58:59;;;;;;;2.03;0.50;;;12.10;99.90;;;;;;4975935;28;20165;-78
2021/12/30 06:01:25;;;;;;;0.53;0.47;;;12.00;99.90;;;;;;4997267;28;21010;-77
2021/12/30 06:03:50;;;;;;;0.40;0.30;;;12.00;99.90;;;;;;4997570;28;20190;-78
2021/12/30 06:06:16;;;;;;;1.30;0.50;;;12.10;99.90;;;;;;4977336;28;20542;-78
2021/12/30 06:08:41;;;;;;;0.50;0.30;;;12.10;99.90;;;;;;4978990;28;20251;-77
2021/12/30 06:11:07;;;;;;;0.20;0.20;;;12.10;99.90;;;;;;4993274;28;20683;-77
2021/12/30 06:13:33;;;;;;;0.40;0.40;;;12.00;99.90;;;;;;5001890;28;20211;-77
2021/12/30 06:15:58;;;;;;;0.40;0.30;;;12.00;99.90;;;;;;5000705;28;20614;-76
2021/12/30 06:18:24;;;;;;;0.73;0.40;;;12.00;99.90;;;;;;4985751;28;20169;-78
2021/12/30 06:20:49;;;;;;;0.60;0.47;;;12.10;99.90;;;;;;5006124;28;20185;-77
2021/12/30 06:23:15;;;;;;;1.93;0.40;;;12.00;99.90;;;;;;4985740;28;20214;-78
2021/12/30 06:25:41;;;;;;;0.63;0.40;;;12.00;99.90;;;;;;4996914;28;20200;-78
2021/12/30 06:28:06;;;;;;;0.63;0.40;;;12.00;99.90;;;;;;4997190;28;20181;-77
2021/12/30 06:30:32;;;;;;;2.97;0.70;;;12.10;99.90;;;;;;4997630;28;20257;-77
2021/12/30 06:32:58;;;;;;;1.17;0.70;;;12.10;99.90;;;;;;5005076;28;20304;-77
2021/12/30 06:35:23;;;;;;;0.97;0.80;;;12.10;99.90;;;;;;4994924;28;20298;-77
2021/12/30 06:37:49;;;;;;;1.83;0.50;;;12.10;99.90;;;;;;5012661;28;20180;-78
2021/12/30 06:40:15;;;;;;;0.60;0.60;;;12.00;99.90;;;;;;4994762;28;20170;-77
2021/12/30 06:42:43;;;;;;;2.03;0.47;;;12.10;99.90;;;;;;4993886;28;20179;-77
2021/12/30 06:45:10;;;;;;;1.13;0.60;;;12.00;99.90;;;;;;4993724;28;20264;-76
2021/12/30 06:47:35;;;;;;;1.10;0.60;;;12.10;99.90;;;;;;4999764;28;20657;-76
2021/12/30 06:50:02;;;;;;;1.80;0.70;;;12.10;99.90;;;;;;4998631;28;20175;-78
2021/12/30 06:52:29;;;;;;;0.70;0.50;;;12.10;99.90;;;;;;5000950;28;20177;-77
2021/12/30 06:54:55;;;;;;;0.77;0.50;;;12.10;99.90;;;;;;4996624;28;20252;-77
2021/12/30 06:57:21;;;;;;;0.87;0.60;;;12.10;99.90;;;;;;4993566;28;20228;-77
2021/12/30 06:59:47;;;;;;;0.63;0.60;;;12.00;99.90;;;;;;4997080;28;20647;-77
2021/12/30 07:02:14;;;;;;;1.00;0.57;;;12.10;99.90;;;;;;4995073;28;20636;-77
2021/12/30 07:04:39;;;;;;;0.50;0.37;;;12.10;99.90;;;;;;4999542;28;20568;-79
2021/12/30 07:07:05;;;;;;;0.80;0.50;;;12.00;99.90;;;;;;4994046;28;20207;-77
2021/12/30 07:09:31;;;;;;;0.87;0.40;;;12.00;99.90;;;;;;5000281;28;20178;-77
2021/12/30 07:11:57;;;;;;;0.37;0.37;;;12.00;99.90;;;;;;4993975;28;20694;-77
2021/12/30 07:14:25;;;;;;;0.40;0.30;;;12.00;99.90;;;;;;4996992;28;20203;-77
2021/12/30 07:16:50;;;;;;;1.07;0.50;;;12.00;99.90;;;;;;5001022;28;20211;-78
2021/12/30 07:19:16;;;;;;;1.03;0.50;;;12.00;99.90;;;;;;4993159;28;20178;-79
2021/12/30 07:21:42;;;;;;;1.27;0.60;;;11.90;99.90;;;;;;4999864;28;20202;-77
2021/12/30 07:24:08;;;;;;;0.63;0.50;;;12.00;99.90;;;;;;4989278;28;20210;-77
2021/12/30 07:26:34;;;;;;;0.77;0.50;;;12.00;99.90;;;;;;4988440;28;20181;-77
2021/12/30 07:29:00;;;;;;;1.10;0.50;;;12.00;99.90;;;;;;4978683;28;20178;-77
2021/12/30 07:31:27;;;;;;;0.50;0.50;;;12.00;99.90;;;;;;4996539;28;20175;-77
2021/12/30 07:33:52;;;;;;;0.60;0.60;;;12.00;99.90;;;;;;4984355;28;20211;-77
2021/12/30 07:36:18;;;;;;;1.27;0.63;;;12.00;99.90;;;;;;4984870;28;20753;-75
2021/12/30 07:38:44;;;;;;;1.07;0.70;;;12.00;99.90;;;;;;4990625;28;20544;-77
2021/12/30 07:41:10;;;;;;;0.77;0.77;;;12.00;99.90;;;;;;4981644;28;20172;-77
2021/12/30 07:43:35;;;;;;;0.83;0.80;;;12.00;99.90;;;;;;4981215;28;20210;-78
2021/12/30 07:46:01;;;;;;;0.70;0.70;;;12.00;99.90;;;;;;4992900;28;20190;-77
2021/12/30 07:48:27;;;;;;;1.23;0.70;;;12.00;99.90;;;;;;5010063;28;20170;-77
2021/12/30 07:50:53;;;;;;;0.70;0.70;;;12.00;99.90;;;;;;4997766;28;20188;-78
2021/12/30 07:53:20;;;;;;;1.60;1.17;;;12.00;99.90;;;;;;4980353;28;20583;-78
2021/12/30 07:55:46;;;;;;;0.80;0.80;;;12.10;99.90;;;;;;4997388;28;20193;-78
2021/12/30 07:58:11;;;;;;;0.77;0.70;;;12.10;99.90;;;;;;4972559;28;20204;-77
2021/12/30 08:00:37;;;;;;;1.00;0.77;;;12.00;99.90;;;;;;4981199;28;20178;-77
2021/12/30 08:03:03;;;;;;;1.17;0.90;;;12.10;99.90;;;;;;4991918;28;20574;-77
2021/12/30 08:05:28;;;;;;;1.20;0.90;;;12.10;99.90;;;;;;4994710;28;20190;-77
2021/12/30 08:07:55;;;;;;;0.70;0.60;;;12.10;99.90;;;;;;4988062;28;20184;-76
2021/12/30 08:10:22;;;;;;;0.80;0.80;;;12.10;99.90;;;;;;4987499;28;20175;-77
2021/12/30 08:12:49;;;;;;;1.77;0.87;;;12.10;99.90;;;;;;4979180;28;20205;-77
2021/12/30 08:15:16;;;;;;;3.57;1.00;;;12.20;99.90;;;;;;4980524;28;20201;-77
2021/12/30 08:17:44;;;;;;;1.00;0.90;;;12.20;99.90;;;;;;4983349;28;20256;-77
2021/12/30 08:20:11;;;;;;;0.97;0.70;;;12.20;99.90;;;;;;4976870;28;20596;-76
2021/12/30 08:22:37;;;;;;;1.20;0.90;;;12.20;99.90;;;;;;4983343;28;20272;-76
2021/12/30 08:25:05;;;;;;;0.80;0.80;;;12.20;99.90;;;;;;5028021;23;20294;-74
2021/12/30 08:27:31;;;;;;;1.20;1.10;;;12.20;99.90;;;;;;4998169;28;20268;-74
2021/12/30 08:29:56;;;;;;;1.77;1.27;;;12.20;99.90;;;;;;4996458;28;20179;-73
2021/12/30 08:32:22;;;;;;;1.47;1.00;;;12.20;99.90;;;;;;4995006;28;20200;-73
2021/12/30 08:34:48;;;;;;;1.13;0.70;;;12.20;99.90;;;;;;5013533;28;20201;-73
2021/12/30 08:37:16;;;;;;;2.10;0.90;;;12.20;99.90;;;;;;5012164;28;20239;-72
2021/12/30 08:39:42;;;;;;;1.30;0.83;;;12.30;99.90;;;;;;4996264;28;20178;-74
2021/12/30 08:42:24;;;;;;;0.77;0.70;;;12.30;99.90;;;;;;5004362;28;20276;-72
2021/12/30 08:44:51;;;;;;;1.73;1.10;;;12.30;99.90;;;;;;5010219;28;20205;-73
2021/12/30 08:47:20;;;;;;;2.30;0.70;;;12.30;99.90;;;;;;4995341;28;20234;-73
2021/12/30 08:49:46;;;;;;;1.20;1.00;;;12.40;99.90;;;;;;4999453;28;20186;-73
2021/12/30 08:52:17;;;;;;;1.20;0.90;;;12.40;99.90;;;;;;5013587;28;20714;-73
2021/12/30 09:15:25;;;;;;;0.83;0.83;;;12.60;99.90;;;;;;5174341;23;20230;-76
2021/12/30 09:17:52;;;;;;;2.13;1.90;;;12.60;99.90;;;;;;4992153;28;20209;-75
2021/12/30 09:20:18;;;;;;;1.10;1.00;;;12.60;99.90;;;;;;4991721;28;20181;-76
2021/12/30 09:22:44;;;;;;;1.20;0.80;;;12.70;99.90;;;;;;4993053;28;20227;-77
2021/12/30 09:25:11;;;;;;;0.60;0.57;;;12.70;99.90;;;;;;4976708;28;20198;-77
2021/12/30 09:27:39;;;;;;;0.87;0.40;;;12.70;99.90;;;;;;4989169;28;20177;-77
2021/12/30 09:30:08;;;;;;;0.60;0.60;;;12.80;99.90;;;;;;4971373;28;20686;-77
2021/12/30 09:32:33;;;;;;;1.00;0.70;;;12.80;99.90;;;;;;4993562;28;20196;-76
2021/12/30 09:34:59;;;;;;;0.93;0.70;;;12.80;99.90;;;;;;4999081;28;20181;-76
2021/12/30 09:37:25;;;;;;;0.93;0.70;;;12.80;99.90;;;;;;4980518;28;20616;-77
2021/12/30 09:39:52;;;;;;;1.03;0.70;;;12.90;99.90;;;;;;4996592;28;20674;-77
2021/12/30 09:42:19;;;;;;;0.87;0.70;;;12.90;99.90;;;;;;4996886;28;20233;-77
2021/12/30 09:44:45;;;;;;;1.30;1.20;;;12.90;99.90;;;;;;4994565;28;20211;-77
2021/12/30 09:47:11;;;;;;;0.80;0.50;;;13.00;99.90;;;;;;4997109;28;20225;-77
2021/12/30 09:49:37;;;;;;;0.70;0.70;;;13.00;99.90;;;;;;4998675;28;20206;-77
2021/12/30 09:52:03;;;;;;;0.77;0.70;;;13.00;99.90;;;;;;4999253;28;20183;-77
2021/12/30 09:54:29;;;;;;;0.50;0.50;;;12.90;99.90;;;;;;4997896;28;20206;-77
2021/12/30 09:56:55;;;;;;;0.90;0.60;;;13.00;99.90;;;;;;4969227;28;20746;-78
2021/12/30 09:59:23;;;;;;;0.73;0.60;;;13.00;99.90;;;;;;4962711;28;20188;-78
2021/12/30 10:01:49;;;;;;;1.83;0.80;;;13.00;99.90;;;;;;4981222;28;20202;-77
2021/12/30 10:04:15;;;;;;;1.13;0.80;;;13.10;99.90;;;;;;4994030;28;20211;-79
2021/12/30 10:06:49;;;;;;;0.87;0.70;;;13.10;99.90;;;;;;4987285;28;20192;-79
2021/12/30 10:09:16;;;;;;;0.70;0.60;;;13.10;99.90;;;;;;4994451;28;20261;-78
2021/12/30 10:11:49;;;;;;;2.00;0.60;;;13.20;99.90;;;;;;4981491;28;20561;-78
2021/12/30 10:14:33;;;;;;;0.63;0.63;;;13.30;99.90;;;;;;5000484;28;20213;-78
2021/12/30 10:17:20;;;;;;;1.13;0.70;;;13.30;99.90;;;;;;4996600;28;20210;-78
2021/12/30 10:19:47;;;;;;;0.40;0.40;;;13.40;99.90;;;;;;4982338;28;20183;-78
2021/12/30 10:22:16;;;;;;;0.50;0.50;;;13.40;99.90;;;;;;4999684;28;20229;-78
2021/12/30 10:24:43;;;;;;;1.10;0.70;;;13.40;99.90;;;;;;4999816;28;20203;-78
2021/12/30 10:27:20;;;;;;;2.87;0.57;;;13.40;99.90;;;;;;5000093;28;20182;-78
2021/12/30 10:29:48;;;;;;;0.63;0.60;;;13.40;99.90;;;;;;4998403;28;20179;-78
2021/12/30 10:32:20;;;;;;;0.87;0.60;;;13.40;99.90;;;;;;4999491;28;20657;-78
2021/12/30 10:35:21;;;;;;;1.77;0.60;;;13.50;99.90;;;;;;4998245;28;20210;-78
2021/12/30 10:38:00;;;;;;;0.50;0.40;;;13.50;99.90;;;;;;4898488;29;20690;-78
2021/12/30 10:40:28;;;;;;;0.87;0.50;;;13.60;99.90;;;;;;4988276;28;20197;-78
2021/12/30 10:43:27;;;;;;;0.50;0.50;;;13.60;99.90;;;;;;4999760;28;20711;-78
2021/12/30 10:46:07;;;;;;;0.43;0.40;;;13.70;99.90;;;;;;4998494;28;20658;-78
2021/12/30 10:48:43;;;;;;;0.40;0.40;;;13.70;99.90;;;;;;5000121;28;20210;-78
2021/12/30 10:51:39;;;;;;;0.80;0.47;;;13.80;99.90;;;;;;4981983;28;20205;-78
2021/12/30 10:54:19;;;;;;;0.50;0.50;;;13.80;99.90;;;;;;4990171;28;20579;-79
2021/12/30 10:56:54;;;;;;;2.40;0.87;;;13.90;99.90;;;;;;5000029;28;20727;-78
2021/12/30 10:59:37;;;;;;;1.10;0.60;;;13.90;99.90;;;;;;4982808;28;20265;-78
2021/12/30 11:02:08;;;;;;;0.30;0.30;;;13.90;99.90;;;;;;4999832;28;20211;-78
2021/12/30 11:04:46;;;;;;;0.60;0.50;;;14.00;99.90;;;;;;5000121;28;20278;-78
2021/12/30 11:07:15;;;;;;;0.70;0.60;;;14.00;99.90;;;;;;4981968;28;20623;-78
2021/12/30 11:09:47;;;;;;;0.93;0.57;;;14.00;99.90;;;;;;4999908;28;20179;-78
2021/12/30 11:12:13;;;;;;;0.67;0.40;;;14.10;99.90;;;;;;4999892;28;20250;-78
2021/12/30 11:14:38;;;;;;;0.63;0.47;;;14.10;99.90;;;;;;4999135;28;20216;-78
2021/12/30 11:17:21;;;;;;;0.67;0.50;;;14.10;99.90;;;;;;4999914;28;20630;-78
2021/12/30 11:19:56;;;;;;;0.60;0.30;;;14.10;99.90;;;;;;5000644;28;20219;-78
2021/12/30 11:22:27;;;;;;;1.00;0.50;;;14.10;99.90;;;;;;5000134;28;20644;-78
2021/12/30 11:24:55;;;;;;;1.40;0.47;;;14.10;99.90;;;;;;5000105;28;20194;-78
2021/12/30 11:27:22;;;;;;;0.43;0.30;;;14.10;99.90;;;;;;4983225;28;20558;-78
2021/12/30 11:29:51;;;;;;;0.20;0.20;;;14.20;99.90;;;;;;5000233;28;20179;-79
2021/12/30 11:32:20;;;;;;;0.40;0.40;;;14.20;99.90;;;;;;5000325;28;20587;-78
2021/12/30 11:34:47;;;;;;;0.30;0.30;;;14.20;99.90;;;;;;4999472;28;20227;-78
2021/12/30 11:37:14;;;;;;;1.20;0.47;;;14.20;99.90;;;;;;5000571;28;20203;-78
2021/12/30 11:39:43;;;;;;;1.23;0.30;;;14.30;99.90;;;;;;4981915;28;20172;-78
2021/12/30 11:42:37;;;;;;;0.30;0.30;;;14.30;99.90;;;;;;4999340;28;20172;-78
2021/12/30 11:45:20;;;;;;;0.30;0.30;;;14.20;99.90;;;;;;4981050;28;20203;-78
2021/12/30 11:47:46;;;;;;;0.37;0.30;;;14.30;99.90;;;;;;4992638;28;20175;-78
2021/12/30 11:50:27;;;;;;;0.80;0.27;;;14.30;99.90;;;;;;4997710;28;20179;-78
2021/12/30 11:53:01;;;;;;;0.13;0.13;;;14.30;99.90;;;;;;4998274;28;20174;-78
2021/12/30 11:55:48;;;;;;;0.53;0.30;;;14.30;99.90;;;;;;4995890;28;20204;-78
2021/12/30 11:58:43;;;;;;;0.20;0.20;;;14.30;99.90;;;;;;4995254;28;20188;-77
2021/12/30 12:01:11;;;;;;;0.20;0.20;;;14.30;99.90;;;;;;4995932;28;20251;-78
2021/12/30 12:03:43;;;;;;;0.20;0.20;;;14.20;99.90;;;;;;4999549;28;20222;-78
2021/12/30 12:06:36;;;;;;;0.10;0.10;;;14.20;99.90;;;;;;4979643;28;20176;-78
2021/12/30 12:09:04;;;;;;;0.83;0.23;;;14.20;99.90;;;;;;4998915;28;20214;-78
2021/12/30 12:11:50;;;;;;;0.20;0.20;;;14.20;99.90;;;;;;4999099;28;20223;-78
2021/12/30 12:14:23;;;;;;;0.30;0.20;;;14.30;99.90;;;;;;4999955;28;20196;-78
2021/12/30 12:17:33;;;;;;;0.30;0.10;;;14.30;99.90;;;;;;4999152;28;20218;-78
2021/12/30 12:20:27;;;;;;;0.33;0.23;;;14.30;99.90;;;;;;4988992;28;20184;-78
2021/12/30 12:22:53;;;;;;;0.33;0.30;;;14.20;99.90;;;;;;4991101;28;20532;-79
2021/12/30 12:25:24;;;;;;;0.80;0.30;;;14.30;99.90;;;;;;4997635;28;20184;-79
2021/12/30 12:27:52;;;;;;;0.60;0.40;;;14.30;99.90;;;;;;4980418;28;20182;-79
2021/12/30 12:30:28;;;;;;;0.90;0.57;;;14.30;99.90;;;;;;4999634;28;20237;-79
2021/12/30 12:32:54;;;;;;;1.20;0.43;;;14.30;99.90;;;;;;4978002;28;20312;-79
2021/12/30 12:35:19;;;;;;;1.00;0.40;;;14.30;99.90;;;;;;4988059;28;20554;-79
2021/12/30 12:37:47;;;;;;;0.30;0.30;;;14.30;99.90;;;;;;4998945;28;20194;-79
2021/12/30 12:40:16;;;;;;;0.97;0.43;;;14.30;99.90;;;;;;4997805;28;20231;-78
2021/12/30 12:42:53;;;;;;;0.40;0.30;;;14.30;99.90;;;;;;4980610;28;20183;-78
2021/12/30 12:45:31;;;;;;;0.87;0.30;;;14.30;99.90;;;;;;4997155;28;20198;-78
2021/12/30 12:48:45;;;;;;;0.30;0.20;;;14.30;99.90;;;;;;4997507;28;20178;-79
2021/12/30 12:51:22;;;;;;;0.57;0.40;;;14.20;99.90;;;;;;4990879;28;20191;-78
2021/12/30 12:53:52;;;;;;;0.63;0.50;;;14.30;99.90;;;;;;4996249;28;20199;-78
2021/12/30 12:56:30;;;;;;;0.20;0.20;;;14.30;99.90;;;;;;4996138;28;20184;-78
2021/12/30 12:58:58;;;;;;;0.87;0.50;;;14.30;99.90;;;;;;4994382;28;20314;-79
2021/12/30 13:01:30;;;;;;;0.47;0.43;;;14.30;99.90;;;;;;5002230;28;20179;-78
2021/12/30 13:03:58;;;;;;;0.30;0.30;;;14.30;99.90;;;;;;4984912;28;20202;-78
2021/12/30 13:06:40;;;;;;;1.43;0.73;;;14.30;99.90;;;;;;4999631;28;20205;-78
2021/12/30 13:09:11;;;;;;;1.30;0.30;;;14.30;99.90;;;;;;4996200;28;20495;-78
2021/12/30 13:11:40;;;;;;;0.63;0.30;;;14.30;99.90;;;;;;4992663;28;20246;-78
2021/12/30 13:14:19;;;;;;;0.40;0.40;;;14.30;99.90;;;;;;4998002;28;20203;-77
2021/12/30 13:16:47;;;;;;;0.40;0.40;;;14.30;99.90;;;;;;5001799;28;20233;-78
2021/12/30 13:19:18;;;;;;;1.47;0.50;;;14.30;99.90;;;;;;4998590;28;20191;-77
2021/12/30 13:21:52;;;;;;;0.50;0.50;;;14.40;99.90;;;;;;4997829;28;20265;-78